Latest Weather Observations for Kununurra Airport

IDD60801

Issued at 12:01 pm CST Friday 30 January 2015 (issued every 30 minutes, with the page automatically refreshed every 10 minutes)

About weather observations | Map of weather stations | Latest weather observations for NT | Other Formats
Station Details ID: 002056 Name: KUNUNURRA AERO Lat: -15.78 Lon: 128.71 Height: 44.0 m
Data from the previous 72 hours. | See also: Recent months at Kununurra Airport
Date/Time
CST
Temp
°C
App
Temp
°C
Dew
Point
Rel
Hum
%
Delta-T
°C
Wind Press
QNH
hPa
Press
MSL
hPa
Rain
since 9 am
mm
Dir
 
Spd
km/h
Gust
km/h
Spd
kts
Gust
kts
30/12:00pm 31.9 35.5 23.1 59 6.1 N 9 13 5 7 1008.4 - 0.0
30/11:30am 31.7 35.5 23.5 62 5.7 WNW 9 15 5 8 1008.7 - 0.0
30/11:00am 31.2 36.4 23.6 64 5.3 N 2 9 1 5 1008.8 - 0.0
30/10:30am 31.3 36.3 23.8 64 5.2 W 4 7 2 4 1008.7 1008.4 12.0
30/10:00am 29.9 34.2 23.7 69 4.3 S 7 13 4 7 1008.7 - 12.0
30/09:30am 29.4 33.8 24.5 75 3.4 SSW 9 13 5 7 1008.6 - 11.8
30/09:00am 28.1 32.5 25.1 84 2.1 SSW 11 15 6 8 1008.1 - 11.8
30/08:30am 27.6 31.6 23.8 80 2.6 SW 9 11 5 6 1008.0 - 11.8
30/08:00am 27.0 32.8 24.6 87 1.7 SW 2 7 1 4 1008.2 - 11.8
30/07:30am 26.2 31.5 24.9 92 0.9 WSW 6 6 3 3 1008.0 1007.7 11.8
30/07:00am 25.8 32.2 24.9 95 0.6 CALM 0 6 0 3 1007.6 - 11.8
30/06:30am 25.5 30.7 24.8 96 0.5 SSW 6 7 3 4 1007.0 - 11.8
30/06:00am 25.8 31.4 24.9 95 0.6 SSW 4 7 2 4 1006.6 - 11.8
30/05:30am 25.7 32.0 24.8 95 0.6 CALM 0 0 0 0 1006.4 - 11.8
30/05:00am 26.0 32.2 24.6 92 1.0 CALM 0 0 0 0 1006.5 - 11.8
30/04:30am 26.3 32.4 24.4 89 1.3 CALM 0 0 0 0 1006.6 1006.3 11.8
30/04:00am 26.3 31.4 24.7 91 1.1 NNE 6 7 3 4 1006.7 - 11.8
30/03:30am 26.2 32.3 24.5 90 1.2 CALM 0 0 0 0 1006.7 - 11.8
30/03:00am 26.2 32.0 23.9 87 1.6 CALM 0 0 0 0 1006.8 - 11.8
30/02:30am 26.2 32.2 24.3 89 1.3 CALM 0 0 0 0 1006.8 - 11.8
30/02:00am 26.2 32.2 24.3 89 1.3 CALM 0 0 0 0 1007.2 - 11.8
30/01:30am 26.4 32.5 24.4 89 1.4 CALM 0 0 0 0 1007.7 1007.4 11.8
30/01:00am 26.1 31.6 24.7 92 1.0 NW 4 7 2 4 1007.9 - 11.8
30/12:30am 26.3 31.1 24.1 88 1.5 SW 6 7 3 4 1008.1 - 11.8
30/12:00am 26.6 31.3 24.0 86 1.8 SSW 6 7 3 4 1008.4 - 11.8
 
Date/Time
CST
Temp
°C
App
Temp
°C
Dew
Point
Rel
Hum
%
Delta-T
°C
Wind Press
QNH
hPa
Press
MSL
hPa
Rain
since 9 am
mm
Dir
 
Spd
km/h
Gust
km/h
Spd
kts
Gust
kts
29/11:30pm 26.6 31.9 24.3 87 1.6 S 4 6 2 3 1008.5 - 11.8
29/11:00pm 26.6 31.7 24.1 86 1.7 E 4 9 2 5 1008.4 - 11.8
29/10:30pm 26.1 32.1 24.2 89 1.3 CALM 0 4 0 2 1008.0 1007.7 11.8
29/10:00pm 26.1 31.1 23.9 88 1.5 E 4 7 2 4 1007.7 - 11.8
29/09:30pm 25.7 30.3 23.1 85 1.8 SE 4 7 2 4 1007.4 - 11.8
29/09:00pm 25.6 30.5 23.7 89 1.3 SSE 4 7 2 4 1007.2 - 11.8
29/08:30pm 24.9 27.9 22.7 87 1.5 WSW 11 15 6 8 1006.8 - 11.8
29/08:07pm 24.4 26.4 22.3 88 1.4 WSW 15 20 8 11 1006.7 - 11.6
29/08:00pm 24.4 25.5 22.3 88 1.4 WSW 20 26 11 14 1006.6 - 11.0
29/07:41pm 24.4 25.3 22.0 86 1.6 SSE 20 26 11 14 1007.3 - 8.0
29/07:35pm 24.6 20.9 22.5 88 1.4 E 46 65 25 35 1007.3 - 3.6
29/07:31pm 24.3 19.3 23.0 92 0.9 E 54 65 29 35 1006.6 - 1.2
29/07:30pm 24.5 19.8 23.5 94 0.7 E 54 65 29 35 1006.5 1006.2 0.6
29/07:27pm 25.7 20.0 22.7 83 2.0 E 57 65 31 35 1006.0 - 0.2
29/07:25pm 28.8 28.1 22.5 68 4.3 ENE 30 59 16 32 1006.1 - 0.2
29/07:00pm 30.9 34.5 22.1 59 6.0 SW 6 7 3 4 1005.0 - 0.2
29/06:30pm 31.2 34.1 22.4 59 6.0 NNW 11 19 6 10 1004.4 - 0.2
29/06:00pm 33.9 36.5 21.2 47 8.6 N 9 15 5 8 1003.8 - 0.2
29/05:30pm 33.9 37.8 22.9 52 7.6 NNW 7 13 4 7 1003.6 - 0.2
29/05:00pm 33.5 36.2 22.1 51 7.8 NNW 11 17 6 9 1003.6 - 0.2
29/04:30pm 33.3 36.0 22.1 52 7.7 N 11 17 6 9 1003.5 1003.1 0.2
29/04:00pm 33.8 37.2 23.3 54 7.3 NNE 11 13 6 7 1003.8 - 0.2
29/03:30pm 33.7 37.7 23.7 56 7.0 N 9 15 5 8 1004.2 - 0.2
29/03:00pm 33.1 35.9 21.6 51 7.8 NNE 9 17 5 9 1004.8 - 0.2
29/02:30pm 33.2 36.4 22.4 53 7.4 N 9 15 5 8 1005.2 - 0.2
29/02:00pm 32.2 35.7 22.8 57 6.5 WSW 9 17 5 9 1005.9 - 0.2
29/01:30pm 32.3 36.5 23.2 58 6.3 S 6 13 3 7 1006.3 1006.0 0.2
29/01:00pm 31.3 34.9 23.8 64 5.2 SSW 11 17 6 9 1006.7 - 0.2
29/12:30pm 31.8 35.5 24.5 65 5.1 SW 13 20 7 11 1006.9 - 0.2
29/12:00pm 30.4 34.2 24.1 69 4.4 SW 11 20 6 11 1007.5 - 0.2
29/11:30am 29.7 34.1 23.5 69 4.3 S 6 13 3 7 1007.8 - 0.2
29/11:00am 28.7 32.8 23.2 72 3.8 SW 7 13 4 7 1008.0 - 0.2
29/10:30am 27.5 31.3 22.8 75 3.2 WNW 7 9 4 5 1008.3 1008.0 7.8
29/10:00am 26.2 29.8 23.1 83 2.1 NE 9 11 5 6 1008.8 - 7.8
29/09:30am 25.3 28.0 22.8 86 1.7 E 13 17 7 9 1008.8 - 7.8
29/09:00am 24.9 28.4 22.1 84 1.9 N 7 11 4 6 1008.4 - 7.8
29/08:30am 24.1 28.0 21.1 83 2.0 N 2 7 1 4 1008.0 - 7.8
29/08:04am 24.0 26.3 21.3 85 1.8 N 11 17 6 9 1008.3 - 7.8
29/08:00am 24.1 26.5 21.5 85 1.7 N 11 17 6 9 1008.3 - 7.8
29/07:48am 24.3 26.8 22.5 90 1.2 NNE 13 17 7 9 1008.3 - 7.2
29/07:30am 25.1 28.4 23.9 93 0.8 N 13 19 7 10 1008.2 1007.9 6.4
29/07:00am 25.2 29.1 24.2 94 0.7 N 11 15 6 8 1007.3 - 6.4
29/06:30am 25.0 28.8 24.0 94 0.7 N 11 13 6 7 1006.6 - 6.4
29/06:00am 24.9 30.1 24.2 96 0.5 N 4 11 2 6 1006.0 - 6.4
29/05:30am 24.8 30.7 24.1 96 0.5 CALM 0 6 0 3 1005.6 - 6.4
29/05:00am 24.9 29.0 24.0 95 0.6 N 9 11 5 6 1005.6 - 6.4
29/04:30am 25.3 30.9 24.3 94 0.7 N 2 6 1 3 1005.2 1004.9 6.4
29/04:00am 25.7 31.7 24.3 92 1.0 CALM 0 0 0 0 1005.1 - 6.4
29/03:30am 25.6 30.4 24.2 92 1.0 S 6 9 3 5 1005.0 - 6.4
29/03:00am 25.3 31.1 24.6 96 0.5 S 2 7 1 4 1005.1 - 6.4
29/02:30am 25.2 31.2 24.3 95 0.6 CALM 0 0 0 0 1005.3 - 6.4
29/02:00am 25.1 30.9 23.9 93 0.8 CALM 0 2 0 1 1005.4 - 6.4
29/01:30am 25.1 31.1 24.2 95 0.6 CALM 0 0 0 0 1005.5 1005.2 6.4
29/01:00am 25.1 30.3 23.6 91 1.0 SSW 2 7 1 4 1006.3 - 6.4
29/12:30am 24.7 27.9 23.1 91 1.1 WNW 11 13 6 7 1006.7 - 6.4
29/12:00am 25.0 29.3 24.3 96 0.5 NNE 9 11 5 6 1007.3 - 6.2
 
Date/Time
CST
Temp
°C
App
Temp
°C
Dew
Point
Rel
Hum
%
Delta-T
°C
Wind Press
QNH
hPa
Press
MSL
hPa
Rain
since 9 am
mm
Dir
 
Spd
km/h
Gust
km/h
Spd
kts
Gust
kts
28/11:30pm 25.1 29.1 23.8 92 0.9 WNW 9 13 5 7 1007.5 - 5.0
28/11:00pm 26.3 30.5 22.5 79 2.6 SE 4 7 2 4 1007.9 - 5.0
28/10:30pm 25.1 28.3 22.3 84 1.9 W 9 15 5 8 1007.5 1007.2 5.0
28/10:00pm 24.8 27.1 22.7 88 1.4 WSW 15 20 8 11 1006.8 - 5.0
28/09:30pm 25.0 27.5 23.2 90 1.2 SW 15 20 8 11 1006.6 - 5.0
28/09:00pm 24.9 28.0 23.6 92 0.9 SSW 13 15 7 8 1006.1 - 4.8
28/08:30pm 25.1 28.1 23.3 90 1.2 SW 13 17 7 9 1006.2 - 4.4
28/08:00pm 25.7 28.3 22.7 83 2.0 SW 13 20 7 11 1005.3 - 4.4
28/07:39pm 27.1 29.2 22.4 75 3.2 S 15 22 8 12 1005.1 - 4.4
28/07:30pm 26.2 27.8 23.3 84 2.0 W 20 30 11 16 1004.3 1003.9 4.4
28/07:18pm 27.0 28.7 24.0 83 2.1 SSW 22 32 12 17 1004.5 - 2.6
28/07:00pm 30.3 31.6 22.4 62 5.4 WNW 19 22 10 12 1003.6 - 0.0
28/06:30pm 32.9 35.1 21.1 50 8.0 N 11 11 6 6 1003.0 - 0.0
28/06:00pm 33.8 35.2 19.5 43 9.5 NNE 11 13 6 7 1002.5 - 0.0
28/05:30pm 34.0 35.5 20.6 45 9.0 ESE 13 17 7 9 1002.3 - 0.0
28/05:00pm 34.5 35.9 21.1 45 9.1 E 15 24 8 13 1002.3 - 0.0
28/04:30pm 33.7 35.1 21.0 47 8.6 ESE 15 20 8 11 1002.4 1002.0 0.0
28/04:00pm 34.9 36.8 21.4 45 9.2 SSE 13 20 7 11 1002.4 - 0.0
28/03:30pm 34.0 36.9 20.6 45 9.0 SE 6 9 3 5 1003.0 - 0.0
28/03:00pm 34.1 36.6 21.1 46 8.8 ESE 9 13 5 7 1003.3 - 0.0
28/02:30pm 34.2 36.5 20.7 45 9.1 S 9 15 5 8 1003.8 - 0.0
28/02:00pm 34.0 36.5 20.3 44 9.2 NNE 7 11 4 6 1004.5 - 0.0
28/01:30pm 33.4 36.4 21.3 49 8.2 E 7 13 4 7 1004.8 1004.4 0.0
28/01:00pm 33.1 36.7 22.3 53 7.4 ENE 7 17 4 9 1005.3 - 0.0
28/12:30pm 32.3 35.4 22.2 55 6.9 E 9 15 5 8 1005.7 - 0.0
28/12:00pm 32.1 35.6 22.1 55 6.8 SSW 7 15 4 8 1006.2 - 0.0
28/11:30am 31.5 35.2 22.6 59 6.1 W 7 11 4 6 1006.7 - 0.0
28/11:00am 30.9 34.8 22.6 61 5.7 SW 6 11 3 6 1007.1 - 0.0
28/10:30am 30.6 35.4 23.5 66 4.9 SSW 4 11 2 6 1007.3 1007.0 17.2
28/10:00am 28.9 33.3 23.5 72 3.7 W 6 9 3 5 1007.4 - 17.2
28/09:30am 28.3 33.1 23.5 75 3.3 SSW 4 7 2 4 1007.3 - 17.2
28/09:00am 27.8 32.9 23.3 76 3.1 SSW 2 7 1 4 1007.1 - 17.2
28/08:30am 27.3 32.2 23.7 81 2.5 E 4 7 2 4 1007.0 - 17.2
28/08:00am 26.0 30.2 23.4 85 1.8 SSW 7 9 4 5 1006.6 - 17.2
28/07:30am 25.6 30.5 23.1 86 1.7 SW 2 7 1 4 1006.3 1006.0 17.2
28/07:00am 24.2 28.5 23.3 95 0.6 WSW 6 7 3 4 1005.9 - 17.2
28/06:30am 24.2 29.8 23.6 96 0.4 CALM 0 0 0 0 1005.7 - 17.2
28/06:00am 24.5 29.4 23.6 95 0.6 SW 4 6 2 3 1005.6 - 17.2
28/05:30am 24.7 28.9 23.5 93 0.8 WSW 7 11 4 6 1005.5 - 17.2
28/05:00am 24.7 28.7 23.8 95 0.6 WSW 9 11 5 6 1005.5 - 17.2
28/04:30am 25.1 29.7 23.8 92 0.9 S 6 7 3 4 1005.5 1005.2 17.2
28/04:00am 25.3 30.1 23.5 90 1.2 SSE 4 6 2 3 1005.5 - 17.2
28/03:30am 25.2 29.9 23.9 92 0.9 SSE 6 7 3 4 1005.6 - 17.2
28/03:00am 25.4 30.0 24.2 93 0.8 SSE 7 9 4 5 1005.7 - 17.2
28/02:30am 25.6 30.2 24.2 92 1.0 SSE 7 9 4 5 1006.0 - 17.2
28/02:00am 25.7 31.7 24.3 92 1.0 CALM 0 0 0 0 1006.1 - 17.2
28/01:30am 25.6 31.6 24.2 92 1.0 CALM 0 0 0 0 1006.3 1006.0 17.2
28/01:00am 25.7 31.6 24.1 91 1.1 CALM 0 0 0 0 1006.6 - 17.2
28/12:30am 25.9 31.7 24.0 89 1.3 CALM 0 0 0 0 1007.3 - 17.2
28/12:00am 25.9 31.7 23.9 89 1.4 CALM 0 0 0 0 1008.1 - 17.2
 
Date/Time
CST
Temp
°C
App
Temp
°C
Dew
Point
Rel
Hum
%
Delta-T
°C
Wind Press
QNH
hPa
Press
MSL
hPa
Rain
since 9 am
mm
Dir
 
Spd
km/h
Gust
km/h
Spd
kts
Gust
kts
27/11:30pm 25.9 31.7 24.0 89 1.3 CALM 0 0 0 0 1008.5 - 17.2
27/11:00pm 25.8 31.7 24.1 90 1.2 CALM 0 0 0 0 1008.7 - 17.2
27/10:30pm 26.0 30.8 23.5 86 1.7 E 4 6 2 3 1008.6 1008.3 17.2
27/10:00pm 26.0 31.7 23.7 87 1.6 CALM 0 0 0 0 1008.5 - 17.2
27/09:30pm 25.6 30.1 24.0 91 1.1 W 7 9 4 5 1008.2 - 17.2
27/09:00pm 26.2 30.5 23.7 86 1.7 NE 7 9 4 5 1007.7 - 17.2
27/08:30pm 26.2 30.7 23.6 85 1.8 E 6 9 3 5 1007.2 - 17.2
27/08:00pm 26.2 30.4 23.4 84 1.9 E 7 9 4 5 1006.9 - 17.2
27/07:30pm 26.3 29.8 22.9 81 2.3 ESE 9 11 5 6 1006.6 1006.3 17.2
27/07:00pm 26.5 30.8 23.7 84 1.9 E 7 11 4 6 1006.2 - 17.2
27/06:30pm 26.8 30.7 22.5 77 2.9 SE 6 9 3 5 1005.8 - 17.2
27/06:00pm 26.8 31.2 23.4 81 2.3 S 6 7 3 4 1005.3 - 17.2
27/05:30pm 26.7 30.3 22.4 77 2.9 SSW 7 11 4 6 1005.1 - 17.2
27/05:00pm 26.6 29.3 22.9 80 2.5 S 13 17 7 9 1004.4 - 17.2
27/04:30pm 26.4 29.9 22.9 81 2.4 S 9 13 5 7 1004.9 1004.5 17.2
27/04:00pm 25.7 29.0 23.8 89 1.3 S 13 17 7 9 1005.2 - 17.2
27/03:30pm 25.2 29.3 24.0 93 0.8 SSE 9 13 5 7 1005.6 - 17.2
27/03:04pm 24.5 27.4 23.2 92 0.9 SSW 13 19 7 10 1006.4 - 17.2
27/03:00pm 24.3 27.2 23.1 93 0.8 SSW 13 19 7 10 1006.6 - 17.2
27/02:30pm 24.2 26.0 23.5 96 0.5 W 20 22 11 12 1007.4 - 7.6
27/02:11pm 28.6 29.7 21.9 67 4.5 S 19 26 10 14 1006.6 - 0.0
27/02:00pm 28.6 30.3 21.6 66 4.7 SW 15 20 8 11 1006.1 - 0.0

Other Formats:

Comma delimited format used in spreadsheet applications
http://www.bom.gov.au/fwo/IDD60801/IDD60801.94216.axf

JavaScript Object Notation format (JSON) in row-major order
http://www.bom.gov.au/fwo/IDD60801/IDD60801.94216.json